Time;durP1;ratioP1;P1;durP2;ratioP2;P2;SDS_P1;SDS_P2;PMS_P1;PMS_P2;Temp;Humidity;BMP_temperature;BMP_pressure;BME280_temperature;BME280_humidity;BME280_pressure;Samples;Min_cycle;Max_cycle;Signal;HPM_P1;HPM_P2
2023/09/04 00:01:00;;;;;;;4.68;2.67;;;;;;;21.90;56.50;102668.94;4920963;29;20036;-75
2023/09/04 00:03:26;;;;;;;5.78;2.20;;;;;;;21.91;56.69;102677.72;4923444;29;20098;-75
2023/09/04 00:05:51;;;;;;;4.32;2.60;;;;;;;21.90;56.80;102670.72;4923414;28;20473;-75
2023/09/04 00:08:18;;;;;;;5.03;2.33;;;;;;;21.89;56.80;102669.03;4921451;29;20074;-76
2023/09/04 00:10:44;;;;;;;4.82;2.50;;;;;;;21.88;56.72;102667.31;4922040;29;20469;-76
2023/09/04 00:13:09;;;;;;;4.22;2.50;;;;;;;21.89;56.46;102666.38;4921019;29;20138;-75
2023/09/04 00:15:35;;;;;;;5.20;2.78;;;;;;;21.88;56.79;102664.66;4921788;29;20075;-75
2023/09/04 00:18:00;;;;;;;5.03;2.70;;;;;;;21.86;56.37;102664.78;4921804;29;20115;-75
2023/09/04 00:20:25;;;;;;;4.10;2.40;;;;;;;21.87;56.20;102666.47;4921414;29;20036;-76
2023/09/04 00:22:50;;;;;;;3.97;2.40;;;;;;;21.85;56.52;102660.41;4921941;29;21016;-75
2023/09/04 00:25:16;;;;;;;4.15;2.38;;;;;;;21.86;56.19;102664.78;4923038;29;20118;-75
2023/09/04 00:27:42;;;;;;;4.03;2.28;;;;;;;21.86;56.20;102663.94;4924629;29;20286;-75
2023/09/04 00:30:08;;;;;;;4.65;2.30;;;;;;;21.86;56.20;102664.78;4925651;29;20122;-75
2023/09/04 00:32:33;;;;;;;4.40;2.58;;;;;;;21.84;56.20;102656.06;4925419;29;20489;-75
2023/09/04 00:34:59;;;;;;;4.75;2.35;;;;;;;21.84;56.29;102655.22;4924469;29;20039;-73
2023/09/04 00:37:24;;;;;;;3.85;2.28;;;;;;;21.84;56.14;102655.22;4925331;29;20047;-74
2023/09/04 00:39:49;;;;;;;4.20;2.40;;;;;;;21.84;56.35;102652.56;4925094;29;20396;-74
2023/09/04 00:42:15;;;;;;;4.22;2.33;;;;;;;21.83;56.26;102650.88;4924662;29;20392;-74
2023/09/04 00:44:43;;;;;;;4.20;2.30;;;;;;;21.83;56.08;102657.03;4925300;29;20046;-75
2023/09/04 00:47:09;;;;;;;4.30;2.47;;;;;;;21.82;56.02;102652.66;4925265;29;20031;-74
2023/09/04 00:49:35;;;;;;;4.13;2.38;;;;;;;21.80;56.17;102665.19;4924528;29;20567;-74
2023/09/04 00:52:01;;;;;;;5.85;2.30;;;;;;;21.80;55.86;102664.34;4925068;28;20035;-74
2023/09/04 00:54:28;;;;;;;4.43;2.55;;;;;;;21.80;56.09;102662.53;4925150;28;20047;-74
2023/09/04 00:56:53;;;;;;;4.35;2.40;;;;;;;21.81;56.04;102660.72;4923828;29;20032;-75
2023/09/04 00:59:19;;;;;;;4.63;2.50;;;;;;;21.81;56.12;102666.03;4925249;28;20055;-75
2023/09/04 01:01:45;;;;;;;4.22;2.42;;;;;;;21.79;55.95;102660.81;4924291;29;20150;-74
2023/09/04 01:04:10;;;;;;;4.18;2.47;;;;;;;21.80;55.68;102661.69;4924394;29;20039;-75
2023/09/04 01:06:36;;;;;;;3.70;2.20;;;;;;;21.79;55.78;102647.56;4924181;28;20036;-75
2023/09/04 01:09:01;;;;;;;4.63;2.47;;;;;;;21.78;55.73;102652.97;4924805;29;20787;-75
2023/09/04 01:11:42;;;;;;;3.90;2.28;;;;;;;21.77;55.50;102648.63;4922922;29;20512;-75
2023/09/04 01:14:13;;;;;;;5.45;2.85;;;;;;;21.77;55.68;102651.28;4924891;29;20036;-75
2023/09/04 01:16:39;;;;;;;4.80;2.55;;;;;;;21.77;55.27;102648.63;4923342;29;20048;-75
2023/09/04 01:19:04;;;;;;;4.40;2.58;;;;;;;21.77;55.46;102648.63;4924495;29;20079;-75
2023/09/04 01:21:35;;;;;;;4.60;2.45;;;;;;;21.74;55.38;102650.53;4922844;28;20150;-75
2023/09/04 01:24:00;;;;;;;4.32;2.15;;;;;;;21.76;55.71;102646.94;4923997;29;20039;-75
2023/09/04 01:26:40;;;;;;;5.22;2.40;;;;;;;21.73;55.23;102640.03;4938343;29;20038;-75
2023/09/04 01:29:32;;;;;;;4.75;2.35;;;;;;;21.74;55.43;102636.41;4924862;29;20478;-74
2023/09/04 01:32:07;;;;;;;4.53;2.50;;;;;;;21.76;55.45;102636.31;4923611;29;20078;-75
2023/09/04 01:34:37;;;;;;;3.70;2.22;;;;;;;21.74;55.22;102644.38;4938841;28;20130;-75
2023/09/04 01:37:04;;;;;;;3.80;2.30;;;;;;;21.73;55.56;102646.19;4924147;29;20139;-75
2023/09/04 01:39:30;;;;;;;4.30;2.45;;;;;;;21.74;55.58;102647.03;4923803;29;20596;-75
2023/09/04 01:41:56;;;;;;;3.90;2.22;;;;;;;21.72;55.17;102646.28;4924039;29;20374;-75
2023/09/04 01:44:21;;;;;;;4.32;2.30;;;;;;;21.73;55.43;102648.00;4923808;29;20035;-75
2023/09/04 01:46:47;;;;;;;4.18;2.25;;;;;;;21.72;55.40;102649.78;4923573;29;20071;-75
2023/09/04 01:49:12;;;;;;;5.15;2.70;;;;;;;21.71;55.05;102644.59;4924062;29;20114;-75
2023/09/04 01:51:38;;;;;;;4.10;2.40;;;;;;;21.72;55.27;102651.59;4923118;29;20428;-76
2023/09/04 01:54:04;;;;;;;3.90;2.22;;;;;;;21.71;55.47;102648.13;4924100;29;20086;-75
2023/09/04 01:56:30;;;;;;;5.63;2.65;;;;;;;21.70;55.34;102645.56;4923768;29;20035;-76
2023/09/04 01:58:55;;;;;;;4.63;3.15;;;;;;;21.71;55.07;102647.25;4922917;29;20039;-75
2023/09/04 02:01:20;;;;;;;5.68;2.38;;;;;;;21.71;55.25;102641.94;4923863;29;20031;-76
2023/09/04 02:03:54;;;;;;;4.82;2.40;;;;;;;21.68;55.12;102635.06;4923616;29;20489;-75
2023/09/04 02:06:20;;;;;;;5.05;2.45;;;;;;;21.69;54.85;102635.88;4923311;28;20036;-75
2023/09/04 02:08:45;;;;;;;4.40;2.42;;;;;;;21.68;54.92;102637.69;4922919;29;20048;-75
2023/09/04 02:11:11;;;;;;;3.58;2.30;;;;;;;21.69;55.23;102634.06;4923536;29;20031;-75
2023/09/04 02:13:39;;;;;;;4.03;2.55;;;;;;;21.68;54.71;102632.41;4922983;29;20626;-74
2023/09/04 02:16:04;;;;;;;5.18;2.63;;;;;;;21.67;54.69;102628.03;4923234;29;20059;-74
2023/09/04 02:18:31;;;;;;;3.75;2.35;;;;;;;21.68;55.20;102627.09;4923525;29;20042;-75
2023/09/04 02:20:56;;;;;;;4.00;2.30;;;;;;;21.66;54.66;102626.31;4922528;28;20485;-75
2023/09/04 02:23:22;;;;;;;4.88;2.35;;;;;;;21.67;54.92;102616.59;4923597;29;20523;-76
2023/09/04 02:25:48;;;;;;;4.30;2.45;;;;;;;21.66;54.59;102613.06;4923162;29;20039;-75
2023/09/04 02:28:13;;;;;;;4.75;2.20;;;;;;;21.67;54.76;102608.63;4922682;28;20054;-75
2023/09/04 02:30:38;;;;;;;4.72;2.33;;;;;;;21.66;54.52;102607.75;4923434;29;20063;-75
2023/09/04 02:33:04;;;;;;;4.63;2.40;;;;;;;21.64;54.60;102607.00;4923519;29;20031;-75
2023/09/04 02:35:30;;;;;;;4.03;2.30;;;;;;;21.65;54.67;102605.19;4922817;29;20035;-74
2023/09/04 02:37:55;;;;;;;5.10;2.15;;;;;;;21.64;54.82;102614.97;4921628;29;20039;-74
2023/09/04 02:40:20;;;;;;;4.25;2.45;;;;;;;21.63;54.75;102601.81;4938184;29;20032;-74
2023/09/04 02:42:46;;;;;;;4.40;2.65;;;;;;;21.64;54.94;102612.31;4922435;29;20035;-74
2023/09/04 02:45:11;;;;;;;4.53;2.72;;;;;;;21.65;54.91;102605.19;4923070;29;20062;-74
2023/09/04 02:47:37;;;;;;;5.13;2.60;;;;;;;21.63;54.49;102597.34;4922414;29;20099;-75
2023/09/04 02:50:05;;;;;;;4.55;2.50;;;;;;;21.62;54.40;102598.31;4922832;29;20084;-74
2023/09/04 02:52:31;;;;;;;4.20;2.70;;;;;;;21.63;54.39;102601.81;4923186;29;20027;-74
2023/09/04 02:54:56;;;;;;;5.15;2.78;;;;;;;21.64;54.35;102601.72;4921740;29;20089;-74
2023/09/04 02:57:22;;;;;;;4.07;2.47;;;;;;;21.63;54.41;102599.16;4922986;29;20036;-75
2023/09/04 02:59:47;;;;;;;5.30;2.70;;;;;;;21.61;54.69;102596.63;4922301;29;20471;-75
2023/09/04 03:02:13;;;;;;;4.20;2.40;;;;;;;21.62;54.34;102592.16;4921954;29;20130;-75
2023/09/04 03:04:39;;;;;;;4.28;2.58;;;;;;;21.61;54.57;102591.31;4922244;28;20043;-74
2023/09/04 03:07:04;;;;;;;4.70;2.45;;;;;;;21.62;54.53;102597.44;4923153;29;20044;-74
2023/09/04 03:09:31;;;;;;;4.57;2.50;;;;;;;21.62;54.46;102589.50;4922003;29;20082;-75
2023/09/04 03:11:57;;;;;;;4.45;2.47;;;;;;;21.60;54.46;102580.81;4921008;28;20564;-75
2023/09/04 03:14:22;;;;;;;4.68;2.40;;;;;;;21.60;54.64;102586.94;4922761;29;20520;-75
2023/09/04 03:16:48;;;;;;;4.30;2.67;;;;;;;21.59;54.40;102579.97;4921911;28;20043;-75
2023/09/04 03:19:13;;;;;;;5.00;2.80;;;;;;;21.60;54.58;102572.84;4922785;28;20028;-75
2023/09/04 03:21:38;;;;;;;5.45;2.95;;;;;;;21.59;54.19;102560.53;4921978;29;20232;-73
2023/09/04 03:24:04;;;;;;;4.40;2.35;;;;;;;21.60;54.40;102567.53;4922509;29;20039;-75
2023/09/04 03:26:29;;;;;;;5.55;3.20;;;;;;;21.58;54.65;102559.69;4922373;29;20040;-75
2023/09/04 03:28:54;;;;;;;4.90;2.77;;;;;;;21.57;54.58;102560.66;4922670;29;20031;-75
2023/09/04 03:31:20;;;;;;;5.55;2.80;;;;;;;21.58;54.57;102562.34;4921628;29;20278;-74
2023/09/04 03:33:45;;;;;;;5.57;2.67;;;;;;;21.58;54.56;102569.47;4922859;29;20036;-72
2023/09/04 03:36:11;;;;;;;4.50;2.50;;;;;;;21.59;54.61;102579.09;4922111;29;20039;-74
2023/09/04 03:38:39;;;;;;;5.57;2.97;;;;;;;21.56;54.24;102581.00;4921757;29;20039;-77
2023/09/04 03:41:05;;;;;;;4.60;2.90;;;;;;;21.58;54.32;102580.06;4922625;29;20050;-73
2023/09/04 03:43:30;;;;;;;5.53;2.92;;;;;;;21.57;54.22;102573.91;4922814;29;20036;-74
2023/09/04 03:45:55;;;;;;;4.60;2.95;;;;;;;21.56;54.21;102566.91;4921975;29;20039;-73
2023/09/04 03:48:21;;;;;;;5.00;2.90;;;;;;;21.56;54.44;102569.56;4922621;29;20319;-74
2023/09/04 03:50:47;;;;;;;4.35;2.55;;;;;;;21.55;54.34;102565.19;4922637;29;20524;-74
2023/09/04 03:53:13;;;;;;;4.82;2.85;;;;;;;21.55;54.01;102567.84;4922115;29;20043;-73
2023/09/04 03:55:38;;;;;;;4.20;2.70;;;;;;;21.54;54.28;102566.19;4922626;29;20042;-74
2023/09/04 03:58:03;;;;;;;3.97;2.57;;;;;;;21.55;54.14;102562.53;4922425;29;20508;-74
2023/09/04 04:00:30;;;;;;;4.63;2.70;;;;;;;21.55;54.11;102559.91;4925636;29;20308;-76
2023/09/04 04:02:57;;;;;;;4.85;2.75;;;;;;;21.54;54.13;102559.06;4926336;29;20370;-75
2023/09/04 04:05:23;;;;;;;6.40;3.03;;;;;;;21.54;54.46;102563.53;4924796;29;20071;-75
2023/09/04 04:07:49;;;;;;;5.15;3.38;;;;;;;21.54;54.22;102566.19;4925738;29;20118;-76
2023/09/04 04:10:15;;;;;;;5.72;3.10;;;;;;;21.51;54.08;102561.06;4925606;29;20119;-74
2023/09/04 04:12:40;;;;;;;5.00;3.20;;;;;;;21.52;54.01;102566.28;4925298;29;20676;-74
2023/09/04 04:15:07;;;;;;;5.25;3.03;;;;;;;21.54;54.06;102566.19;4926078;29;20056;-74
2023/09/04 04:17:34;;;;;;;5.32;2.70;;;;;;;21.52;54.33;102558.31;4925871;29;20106;-74
2023/09/04 04:20:00;;;;;;;4.93;3.20;;;;;;;21.52;54.25;102560.97;4925370;29;20046;-74
2023/09/04 04:22:25;;;;;;;4.60;2.80;;;;;;;21.52;54.27;102563.63;4926215;29;20110;-74
2023/09/04 04:24:51;;;;;;;6.05;3.20;;;;;;;21.52;54.25;102568.06;4934305;29;20059;-75
2023/09/04 04:27:17;;;;;;;5.35;2.90;;;;;;;21.49;53.83;102555.88;4925964;29;20412;-74
2023/09/04 04:29:43;;;;;;;5.25;2.90;;;;;;;21.50;53.81;102559.38;4926642;28;20405;-75
2023/09/04 04:32:09;;;;;;;5.90;2.97;;;;;;;21.53;54.22;102561.81;4926676;28;20087;-74
2023/09/04 04:34:34;;;;;;;4.93;2.90;;;;;;;21.51;53.66;102555.78;4925924;29;20051;-75
2023/09/04 04:37:00;;;;;;;4.88;2.75;;;;;;;21.51;53.88;102561.06;4926585;29;20512;-74
2023/09/04 04:39:25;;;;;;;4.80;2.90;;;;;;;21.51;53.98;102561.91;4926173;28;20040;-75
2023/09/04 04:41:50;;;;;;;6.70;2.97;;;;;;;21.51;54.18;102559.25;4924832;29;20047;-74
2023/09/04 04:44:16;;;;;;;4.90;3.15;;;;;;;21.50;53.93;102557.56;4925766;29;20465;-74
2023/09/04 04:46:41;;;;;;;5.25;2.95;;;;;;;21.50;53.81;102551.41;4925340;29;20043;-74
2023/09/04 04:49:06;;;;;;;4.80;2.75;;;;;;;21.51;53.92;102553.13;4925331;29;20467;-75
2023/09/04 04:51:32;;;;;;;4.45;2.80;;;;;;;21.49;53.68;102553.22;4925770;29;20035;-74
2023/09/04 04:53:57;;;;;;;5.60;3.45;;;;;;;21.49;53.81;102547.91;4925128;29;20046;-74
2023/09/04 04:56:23;;;;;;;4.20;2.63;;;;;;;21.49;54.04;102555.00;4925127;29;20393;-75
2023/09/04 04:58:48;;;;;;;5.20;2.87;;;;;;;21.50;53.75;102549.59;4925346;29;20500;-74
2023/09/04 05:01:14;;;;;;;5.82;3.13;;;;;;;21.49;53.50;102542.63;4925223;29;20374;-74
2023/09/04 05:03:39;;;;;;;5.43;3.13;;;;;;;21.48;53.75;102548.00;4922986;29;20028;-74
2023/09/04 05:06:08;;;;;;;5.18;3.08;;;;;;;21.46;53.64;102540.13;4925068;29;20501;-76
2023/09/04 05:08:34;;;;;;;5.28;3.45;;;;;;;21.47;53.52;102547.13;4924356;29;20516;-74
2023/09/04 05:11:02;;;;;;;4.72;2.95;;;;;;;21.47;53.65;102552.44;4924182;29;20036;-75
2023/09/04 05:13:28;;;;;;;4.95;3.20;;;;;;;21.46;53.54;102556.06;4924777;29;20050;-75
2023/09/04 05:15:53;;;;;;;6.70;3.45;;;;;;;21.47;53.55;102559.53;4923802;29;20056;-75
2023/09/04 05:18:18;;;;;;;4.53;3.17;;;;;;;21.46;53.84;102560.50;4924753;29;20106;-75
2023/09/04 05:20:44;;;;;;;5.65;3.33;;;;;;;21.46;53.94;102560.50;4924813;29;20284;-75
2023/09/04 05:23:09;;;;;;;5.82;3.15;;;;;;;21.46;53.48;102561.34;4923882;29;20134;-76
2023/09/04 05:25:34;;;;;;;5.20;3.20;;;;;;;21.45;53.92;102564.13;4924463;28;20440;-75
2023/09/04 05:27:59;;;;;;;6.05;3.17;;;;;;;21.45;53.73;102564.13;4924069;28;20062;-76
2023/09/04 05:30:25;;;;;;;4.70;3.22;;;;;;;21.45;54.04;102566.78;4924078;28;20124;-74
2023/09/04 05:32:53;;;;;;;5.05;2.97;;;;;;;21.45;53.80;102564.13;4922952;29;20040;-75
2023/09/04 05:35:18;;;;;;;6.00;3.40;;;;;;;21.46;53.50;102560.50;4924504;29;20061;-75
2023/09/04 05:37:44;;;;;;;5.30;3.05;;;;;;;21.44;53.61;102557.94;4921202;28;20493;-75
2023/09/04 05:40:09;;;;;;;5.90;2.88;;;;;;;21.44;53.47;102560.59;4924410;28;20756;-75
2023/09/04 05:42:35;;;;;;;4.82;3.30;;;;;;;21.44;53.94;102567.72;4924376;29;20039;-76
2023/09/04 05:45:01;;;;;;;6.88;3.38;;;;;;;21.44;53.81;102565.06;4923273;29;20031;-73
2023/09/04 05:47:26;;;;;;;4.80;2.92;;;;;;;21.43;53.49;102558.03;4924409;29;20552;-72
2023/09/04 05:49:51;;;;;;;5.30;3.33;;;;;;;21.43;53.70;102561.56;4923707;29;20219;-75
2023/09/04 05:52:16;;;;;;;5.15;3.40;;;;;;;21.44;53.53;102559.75;4923352;29;20497;-74
2023/09/04 05:54:42;;;;;;;5.60;3.08;;;;;;;21.43;54.02;102561.56;4923773;29;20438;-75
2023/09/04 05:57:09;;;;;;;5.88;3.38;;;;;;;21.44;53.72;102565.06;4927868;29;20042;-73
2023/09/04 05:59:36;;;;;;;5.15;3.25;;;;;;;21.44;54.01;102563.25;4946797;29;20046;-73
2023/09/04 06:02:02;;;;;;;5.70;3.55;;;;;;;21.50;53.68;102562.03;4931851;28;20437;-73
2023/09/04 06:04:28;;;;;;;6.30;3.58;;;;;;;21.51;53.64;102559.25;4923981;29;20486;-73
2023/09/04 06:06:53;;;;;;;5.60;3.22;;;;;;;21.55;53.96;102563.41;4922681;29;20130;-74
2023/09/04 06:09:19;;;;;;;5.00;3.10;;;;;;;21.56;53.97;102558.94;4924276;29;20079;-73
2023/09/04 06:11:44;;;;;;;5.13;3.22;;;;;;;21.56;53.83;102559.78;4923378;29;20070;-72
2023/09/04 06:14:10;;;;;;;7.10;2.92;;;;;;;21.56;54.00;102567.75;4923299;29;20331;-74
2023/09/04 06:16:35;;;;;;;5.03;2.97;;;;;;;21.55;53.99;102566.06;4923320;29;20694;-73
2023/09/04 06:19:01;;;;;;;8.00;3.05;;;;;;;21.54;54.38;102558.22;4922719;29;20043;-75
2023/09/04 06:21:26;;;;;;;6.50;2.88;;;;;;;21.52;55.00;102560.09;4923557;29;20035;-75
2023/09/04 06:23:52;;;;;;;5.93;3.03;;;;;;;21.53;55.05;102565.31;4922652;29;20110;-75
2023/09/04 06:26:17;;;;;;;6.03;3.08;;;;;;;21.52;55.21;102566.28;4923157;29;20838;-75
2023/09/04 06:28:42;;;;;;;5.28;3.03;;;;;;;21.54;55.49;102568.81;4923649;29;20119;-74
2023/09/04 06:31:08;;;;;;;5.38;2.95;;;;;;;21.56;55.23;102565.09;4923788;29;20314;-74
2023/09/04 06:33:36;;;;;;;6.82;3.13;;;;;;;21.54;55.55;102561.72;4923125;29;20517;-75
2023/09/04 06:36:03;;;;;;;5.82;3.08;;;;;;;21.55;55.83;102567.84;4923302;29;20040;-76
2023/09/04 06:38:29;;;;;;;5.43;3.00;;;;;;;21.53;55.30;102564.47;4923678;29;20102;-74
2023/09/04 06:40:57;;;;;;;5.68;3.28;;;;;;;21.55;55.83;102567.84;4922678;29;20131;-75
2023/09/04 06:43:24;;;;;;;7.13;3.45;;;;;;;21.53;55.78;102548.53;4937747;28;20035;-73
2023/09/04 06:45:49;;;;;;;5.32;3.28;;;;;;;21.52;55.97;102563.63;4921927;29;20040;-72
2023/09/04 06:48:15;;;;;;;5.78;3.25;;;;;;;21.54;56.16;102558.22;4921833;29;20039;-73
2023/09/04 06:50:40;;;;;;;5.43;3.20;;;;;;;21.55;56.14;102567.84;4922602;29;20031;-75
2023/09/04 06:53:05;;;;;;;6.22;3.10;;;;;;;21.55;56.27;102563.41;4923322;29;20032;-74
2023/09/04 06:55:30;;;;;;;8.27;3.95;;;;;;;21.56;56.26;102561.59;4921810;29;20036;-73
2023/09/04 06:57:56;;;;;;;5.20;2.75;;;;;;;21.53;56.36;102557.34;4922626;29;20028;-74
2023/09/04 07:00:21;;;;;;;7.80;3.70;;;;;;;21.55;56.44;102557.25;4922559;29;20091;-74
2023/09/04 07:02:47;;;;;;;5.72;3.20;;;;;;;21.57;56.28;102555.34;4922550;29;20814;-75
2023/09/04 07:05:12;;;;;;;4.95;3.13;;;;;;;21.58;56.50;102557.03;4922601;29;20032;-76
2023/09/04 07:07:38;;;;;;;5.75;2.88;;;;;;;21.59;56.34;102557.88;4922215;29;20035;-75
2023/09/04 07:10:07;;;;;;;6.07;3.15;;;;;;;21.60;56.42;102552.47;4922750;29;20186;-75
2023/09/04 07:12:36;;;;;;;5.72;3.00;;;;;;;21.62;56.31;102555.00;4924257;28;20040;-74
2023/09/04 07:15:01;;;;;;;5.20;3.25;;;;;;;21.61;56.33;102558.63;4922051;29;20106;-73
2023/09/04 07:17:26;;;;;;;6.82;3.13;;;;;;;21.63;56.36;102554.91;4922065;29;20031;-74
2023/09/04 07:19:52;;;;;;;5.60;3.05;;;;;;;21.64;56.38;102550.47;4922810;29;20035;-73
2023/09/04 07:22:18;;;;;;;5.78;3.30;;;;;;;21.66;56.02;102554.69;4922616;29;20040;-72
2023/09/04 07:24:43;;;;;;;5.00;3.42;;;;;;;21.67;56.31;102545.78;4922665;29;20401;-73
2023/09/04 07:27:10;;;;;;;7.25;3.67;;;;;;;21.65;56.02;102542.41;4937560;28;20043;-72
2023/09/04 07:29:35;;;;;;;8.60;4.00;;;;;;;21.67;56.08;102547.59;4921844;29;20035;-74
2023/09/04 07:32:01;;;;;;;8.00;3.92;;;;;;;21.66;56.27;102545.88;4923120;28;20059;-77
2023/09/04 07:34:27;;;;;;;9.25;3.55;;;;;;;21.62;56.48;102550.56;4922793;29;20027;-73
2023/09/04 07:36:52;;;;;;;12.63;4.13;;;;;;;21.68;56.34;102559.88;4922836;29;20039;-75
2023/09/04 07:39:18;;;;;;;7.88;3.90;;;;;;;21.70;56.23;102555.34;4922225;29;20067;-74
2023/09/04 07:41:43;;;;;;;6.13;3.70;;;;;;;21.65;56.48;102555.66;4921938;28;20552;-83
2023/09/04 07:44:08;;;;;;;7.78;3.50;;;;;;;21.72;56.71;102551.59;4926655;29;20075;-73
2023/09/04 07:46:34;;;;;;;14.07;4.40;;;;;;;21.74;56.55;102559.47;4922860;29;20899;-74
2023/09/04 07:48:59;;;;;;;7.75;4.15;;;;;;;21.80;56.05;102555.53;4923142;29;20177;-72
2023/09/04 07:51:24;;;;;;;5.75;3.63;;;;;;;21.83;56.44;102553.53;4923264;29;20293;-72
2023/09/04 07:53:50;;;;;;;6.38;3.70;;;;;;;21.86;56.34;102547.16;4923815;28;20497;-72
2023/09/04 07:56:15;;;;;;;14.23;3.97;;;;;;;21.88;56.47;102545.22;4924430;29;20047;-73
2023/09/04 07:58:40;;;;;;;5.55;3.75;;;;;;;21.89;56.14;102542.47;4923774;28;20039;-71
2023/09/04 08:01:11;;;;;;;6.60;3.50;;;;;;;21.88;56.54;102532.81;4925593;28;20491;-72
2023/09/04 08:03:37;;;;;;;5.90;3.50;;;;;;;21.91;56.33;102542.38;4925369;29;20040;-75
2023/09/04 08:06:02;;;;;;;5.78;3.45;;;;;;;21.92;56.36;102539.59;4924895;29;20046;-72
2023/09/04 08:08:27;;;;;;;6.75;3.03;;;;;;;21.95;56.50;102538.50;4925834;29;20058;-71
2023/09/04 08:10:53;;;;;;;4.43;3.10;;;;;;;21.97;56.60;102539.28;4925168;29;20111;-71
2023/09/04 08:13:19;;;;;;;6.57;3.60;;;;;;;21.99;56.53;102539.16;4924240;29;20277;-71
2023/09/04 08:15:45;;;;;;;6.57;3.47;;;;;;;22.00;56.15;102538.19;4939318;28;20055;-73
2023/09/04 08:18:10;;;;;;;7.25;2.90;;;;;;;22.02;56.15;102528.34;4924977;29;20091;-75
2023/09/04 08:20:36;;;;;;;8.27;3.67;;;;;;;22.02;56.35;102531.81;4924480;29;20095;-76
2023/09/04 08:23:02;;;;;;;6.00;3.22;;;;;;;22.02;56.53;102537.13;4939680;28;20062;-76
2023/09/04 08:25:28;;;;;;;5.38;3.03;;;;;;;22.02;56.33;102534.47;4925237;29;20039;-72
2023/09/04 08:27:53;;;;;;;7.72;3.30;;;;;;;22.05;56.20;102536.06;4923424;29;20042;-69
2023/09/04 08:30:18;;;;;;;4.82;3.25;;;;;;;22.06;56.17;102535.09;4925382;29;20098;-73
2023/09/04 08:32:46;;;;;;;5.03;3.20;;;;;;;22.07;56.36;102537.66;4924124;28;20087;-71
2023/09/04 08:35:12;;;;;;;5.93;3.22;;;;;;;22.01;56.38;102531.94;4919192;29;20036;-72
2023/09/04 08:37:38;;;;;;;5.20;2.95;;;;;;;21.98;56.52;102530.34;4924890;29;20223;-77
2023/09/04 08:40:04;;;;;;;5.03;3.10;;;;;;;21.95;56.66;102530.56;4922861;29;20130;-73
2023/09/04 08:42:30;;;;;;;5.10;3.20;;;;;;;21.93;56.89;102538.63;4924255;29;20639;-81
2023/09/04 08:44:56;;;;;;;5.32;2.97;;;;;;;21.91;56.60;102540.53;4925377;29;20049;-72
2023/09/04 08:47:23;;;;;;;5.07;2.97;;;;;;;21.92;56.91;102530.78;4929205;29;20032;-81
2023/09/04 08:49:48;;;;;;;4.50;2.85;;;;;;;21.92;56.88;102533.41;4929696;29;20122;-72
2023/09/04 08:52:14;;;;;;;5.47;2.90;;;;;;;21.92;56.83;102530.78;4928934;29;20450;-76
2023/09/04 08:54:40;;;;;;;6.35;3.05;;;;;;;21.91;56.91;102529.09;4929656;29;20456;-78
2023/09/04 08:57:06;;;;;;;5.88;2.70;;;;;;;21.90;56.59;102525.59;4927721;29;20106;-72
2023/09/04 08:59:31;;;;;;;4.40;2.78;;;;;;;21.91;57.13;102523.78;4924304;28;20039;-75
2023/09/04 09:02:00;;;;;;;4.45;2.78;;;;;;;21.95;56.91;102522.59;4925318;29;20045;-71
2023/09/04 09:04:26;;;;;;;5.25;2.88;;;;;;;21.99;56.69;102525.91;4924263;29;20039;-75
2023/09/04 09:06:53;;;;;;;5.10;2.60;;;;;;;21.96;56.66;102523.47;4930871;29;20445;-77
2023/09/04 09:09:21;;;;;;;7.05;2.90;;;;;;;21.95;56.65;102513.78;4930340;28;20040;-75
2023/09/04 09:11:46;;;;;;;7.18;3.00;;;;;;;21.96;56.52;102516.34;4925117;29;20054;-74
2023/09/04 09:14:15;;;;;;;5.68;2.70;;;;;;;21.97;56.76;102523.34;4928021;29;20335;-76
2023/09/04 09:16:40;;;;;;;5.35;2.75;;;;;;;21.98;56.69;102518.88;4925744;29;20575;-80
2023/09/04 09:19:09;;;;;;;5.35;2.88;;;;;;;21.97;56.85;102523.34;4927369;29;20043;-74
2023/09/04 09:21:34;;;;;;;5.93;2.70;;;;;;;22.01;56.61;102526.63;4925171;29;20065;-77
2023/09/04 09:24:47;;;;;;;4.85;2.40;;;;;;;22.02;56.45;102526.50;4924088;28;20035;-76
2023/09/04 09:27:13;;;;;;;4.97;2.60;;;;;;;22.04;56.40;102521.94;4924771;29;20511;-74
2023/09/04 09:29:38;;;;;;;5.70;2.60;;;;;;;22.01;56.68;102524.81;4927334;29;20027;-77
2023/09/04 09:32:04;;;;;;;5.25;2.83;;;;;;;22.04;56.48;102534.38;4926775;29;20036;-76
2023/09/04 09:34:33;;;;;;;4.22;2.72;;;;;;;22.03;56.76;102536.19;4924765;29;20046;-75
2023/09/04 09:36:58;;;;;;;5.65;2.70;;;;;;;22.03;56.69;102530.88;4924832;28;20080;-75
2023/09/04 09:39:25;;;;;;;4.15;2.60;;;;;;;22.05;56.48;102526.28;4929268;29;20064;-74
2023/09/04 09:41:51;;;;;;;4.70;2.65;;;;;;;22.08;56.70;102523.44;4925827;29;20051;-72
2023/09/04 09:44:16;;;;;;;4.47;2.70;;;;;;;22.11;56.53;102522.34;4922728;29;20040;-72
2023/09/04 09:46:42;;;;;;;5.15;2.88;;;;;;;22.10;56.50;102521.50;4923076;28;20036;-72
2023/09/04 09:49:07;;;;;;;6.53;2.60;;;;;;;22.15;56.39;102521.16;4925232;29;20028;-73
2023/09/04 09:51:33;;;;;;;7.22;3.10;;;;;;;22.19;56.30;102521.78;4927714;29;20063;-74
2023/09/04 09:53:59;;;;;;;4.80;2.70;;;;;;;22.22;56.34;102513.59;4925620;29;20079;-74
2023/09/04 09:56:25;;;;;;;7.28;2.80;;;;;;;22.24;56.12;102509.03;4927731;28;20032;-75
2023/09/04 09:58:50;;;;;;;4.50;2.47;;;;;;;22.21;56.00;102504.78;4926129;29;20451;-74
2023/09/04 10:01:18;;;;;;;7.03;2.72;;;;;;;22.22;56.38;102497.66;4926637;29;20036;-78
2023/09/04 10:03:46;;;;;;;6.03;2.88;;;;;;;22.22;56.40;102495.88;4924508;28;20492;-73
2023/09/04 10:06:19;;;;;;;5.15;2.70;;;;;;;22.22;56.55;102493.22;4924098;28;20028;-75
2023/09/04 10:08:47;;;;;;;5.20;2.67;;;;;;;22.23;56.45;102491.41;4924805;28;20046;-75
2023/09/04 10:11:14;;;;;;;6.28;2.60;;;;;;;22.22;56.02;102490.56;4923286;29;20034;-76
2023/09/04 10:14:02;;;;;;;6.60;2.33;;;;;;;22.21;56.52;102494.19;4926192;29;20039;-73
2023/09/04 10:16:32;;;;;;;4.50;2.80;;;;;;;22.25;55.97;102490.31;4925821;29;20134;-74
2023/09/04 10:19:01;;;;;;;4.60;2.70;;;;;;;22.28;56.22;102498.06;4926325;29;20430;-74
2023/09/04 10:21:33;;;;;;;4.85;2.75;;;;;;;22.26;56.25;102496.50;4925983;29;20082;-72
2023/09/04 10:24:03;;;;;;;4.80;2.55;;;;;;;22.25;56.17;102494.78;4943757;29;20083;-74
2023/09/04 10:26:38;;;;;;;5.18;2.72;;;;;;;22.15;56.59;102489.31;4923358;29;20523;-74
2023/09/04 10:29:10;;;;;;;5.15;2.60;;;;;;;22.15;56.52;102485.81;4923873;28;20118;-72
2023/09/04 10:31:38;;;;;;;9.43;3.25;;;;;;;22.18;56.71;102477.63;4926213;29;20135;-76
2023/09/04 10:34:03;;;;;;;5.35;2.65;;;;;;;22.18;56.35;102475.81;4925099;29;20032;-76
2023/09/04 10:36:30;;;;;;;6.15;2.70;;;;;;;22.21;56.89;102477.41;4924795;29;20512;-72
2023/09/04 10:38:57;;;;;;;5.32;2.33;;;;;;;22.18;56.30;102467.84;4923255;28;20110;-72
2023/09/04 10:41:22;;;;;;;5.68;2.90;;;;;;;22.16;56.54;102464.47;4922057;29;20028;-73
2023/09/04 10:43:48;;;;;;;4.45;2.15;;;;;;;22.16;56.72;102466.25;4922945;29;20039;-73
2023/09/04 10:46:14;;;;;;;4.72;2.70;;;;;;;22.14;56.98;102458.38;4921080;29;20046;-72
2023/09/04 10:48:40;;;;;;;4.70;2.47;;;;;;;22.13;56.70;102458.50;4923286;29;20036;-72
2023/09/04 10:51:25;;;;;;;5.20;3.03;;;;;;;22.11;56.67;102463.94;4923176;29;20042;-72
2023/09/04 10:53:50;;;;;;;5.05;2.88;;;;;;;22.10;56.66;102457.78;4922128;29;20040;-71
2023/09/04 10:56:15;;;;;;;5.70;2.72;;;;;;;22.09;56.69;102461.38;4923399;28;20036;-72
2023/09/04 10:59:01;;;;;;;4.95;2.45;;;;;;;22.08;56.90;102450.91;4922929;29;20390;-70
2023/09/04 11:01:35;;;;;;;5.70;2.70;;;;;;;22.07;56.60;102452.69;4922748;29;20131;-72
2023/09/04 11:04:00;;;;;;;;;;;;;;;22.12;56.49;102448.88;4923112;28;20126;-71
2023/09/04 11:06:26;;;;;;;4.38;2.35;;;;;;;22.11;56.70;102442.69;4923081;28;20409;-70
2023/09/04 11:08:51;;;;;;;5.05;2.85;;;;;;;22.08;56.49;102445.59;4921439;29;20499;-70
2023/09/04 11:11:24;;;;;;;4.60;2.47;;;;;;;22.05;56.39;102438.69;4923119;29;20090;-71
2023/09/04 11:14:03;;;;;;;4.38;2.45;;;;;;;22.02;56.35;102436.25;4922610;28;20040;-71
2023/09/04 11:16:37;;;;;;;4.53;2.45;;;;;;;22.01;56.70;102429.25;4921921;29;20532;-71
2023/09/04 11:19:22;;;;;;;4.20;2.30;;;;;;;22.00;56.82;102440.84;4922671;28;20086;-71
2023/09/04 11:21:48;;;;;;;5.95;2.60;;;;;;;22.02;56.35;102432.78;4921610;29;20047;-72